Time;durP1;ratioP1;P1;durP2;ratioP2;P2;SDS_P1;SDS_P2;PMS_P1;PMS_P2;Temp;Humidity;BMP_temperature;BMP_pressure;BME280_temperature;BME280_humidity;BME280_pressure;Samples;Min_cycle;Max_cycle;Signal;HPM_P1;HPM_P2
2022/02/23 00:01:24;;;;;;;25.40;4.80;;;6.20;99.90;;;;;;5066079;28;20135;-79
2022/02/23 00:03:50;;;;;;;22.38;4.35;;;6.20;99.90;;;;;;5067516;28;20182;-79
2022/02/23 00:06:16;;;;;;;21.00;4.43;;;6.20;99.90;;;;;;5049038;28;20384;-79
2022/02/23 00:08:42;;;;;;;22.60;4.38;;;6.20;99.90;;;;;;5084368;28;20503;-79
2022/02/23 00:11:08;;;;;;;25.30;5.20;;;6.20;99.90;;;;;;5051926;28;20045;-79
2022/02/23 00:13:34;;;;;;;24.63;4.30;;;6.10;99.90;;;;;;5047598;28;20131;-79
2022/02/23 00:15:59;;;;;;;21.98;4.13;;;6.10;99.90;;;;;;5034779;28;20037;-79
2022/02/23 00:18:25;;;;;;;17.42;3.97;;;6.10;99.90;;;;;;5101765;28;20525;-79
2022/02/23 00:20:51;;;;;;;26.48;4.60;;;6.10;99.90;;;;;;5071920;28;20067;-79
2022/02/23 00:23:19;;;;;;;20.33;4.05;;;6.00;99.90;;;;;;5103856;28;20058;-79
2022/02/23 00:25:45;;;;;;;25.58;4.65;;;6.00;99.90;;;;;;5087700;28;20048;-79
2022/02/23 00:28:10;;;;;;;21.70;4.60;;;6.00;99.90;;;;;;5084065;28;20137;-80
2022/02/23 00:30:36;;;;;;;26.50;5.25;;;5.90;99.90;;;;;;5087141;28;20140;-79
2022/02/23 00:33:02;;;;;;;24.02;4.82;;;5.90;99.90;;;;;;5069743;28;20036;-80
2022/02/23 00:35:31;;;;;;;20.33;4.20;;;5.90;99.90;;;;;;5105553;28;20091;-80
2022/02/23 00:37:57;;;;;;;22.73;4.82;;;5.90;99.90;;;;;;5104529;28;20048;-79
2022/02/23 00:40:23;;;;;;;25.40;4.80;;;5.80;99.90;;;;;;5103477;28;20075;-80
2022/02/23 00:42:52;;;;;;;22.40;4.90;;;5.90;99.90;;;;;;5070561;28;20084;-78
2022/02/23 00:45:19;;;;;;;25.95;4.30;;;5.90;99.90;;;;;;5066301;28;20593;-78
2022/02/23 00:47:45;;;;;;;19.95;4.22;;;5.90;99.90;;;;;;5083227;28;20110;-79
2022/02/23 00:50:11;;;;;;;21.38;4.00;;;5.80;99.90;;;;;;5092487;28;20036;-78
2022/02/23 00:52:36;;;;;;;22.25;4.25;;;5.80;99.90;;;;;;5104272;28;20047;-78
2022/02/23 00:55:06;;;;;;;23.42;3.85;;;5.80;99.90;;;;;;5069650;28;20557;-79
2022/02/23 00:57:31;;;;;;;21.70;4.57;;;5.70;99.90;;;;;;5070153;28;20094;-78
2022/02/23 01:00:00;;;;;;;23.93;3.93;;;5.70;99.90;;;;;;5104651;28;20103;-79
2022/02/23 01:02:26;;;;;;;28.63;5.93;;;5.70;99.90;;;;;;5100352;28;20174;-78
2022/02/23 01:04:53;;;;;;;20.38;4.80;;;5.60;99.90;;;;;;5050951;28;20052;-78
2022/02/23 01:07:18;;;;;;;24.08;4.53;;;5.60;99.90;;;;;;5050000;28;20052;-78
2022/02/23 01:09:45;;;;;;;24.27;5.18;;;5.60;99.90;;;;;;5072882;28;20052;-78
2022/02/23 01:12:10;;;;;;;21.33;4.00;;;5.60;99.90;;;;;;5078278;28;20041;-78
2022/02/23 01:14:37;;;;;;;25.38;4.88;;;5.60;99.90;;;;;;5070954;28;20048;-79
2022/02/23 01:17:03;;;;;;;24.57;4.57;;;5.70;99.90;;;;;;5118204;27;20047;-78
2022/02/23 01:19:29;;;;;;;29.17;5.00;;;5.60;99.90;;;;;;5091664;28;20495;-80
2022/02/23 01:21:55;;;;;;;21.98;4.85;;;5.60;99.90;;;;;;5053296;28;20052;-79
2022/02/23 01:24:22;;;;;;;22.05;3.95;;;5.60;99.90;;;;;;5070245;28;20507;-79
2022/02/23 01:26:48;;;;;;;25.92;5.40;;;5.50;99.90;;;;;;5088054;28;20080;-79
2022/02/23 01:29:14;;;;;;;29.63;5.40;;;5.50;99.90;;;;;;5083779;28;20071;-80
2022/02/23 01:31:40;;;;;;;22.70;4.60;;;5.40;99.90;;;;;;5066909;28;20039;-79
2022/02/23 01:34:09;;;;;;;26.98;4.85;;;5.50;99.90;;;;;;5090498;28;20128;-79
2022/02/23 01:36:35;;;;;;;25.03;4.53;;;5.50;99.90;;;;;;5073579;28;20040;-79
2022/02/23 01:39:02;;;;;;;24.10;5.15;;;5.50;99.90;;;;;;5090109;28;20449;-80
2022/02/23 01:41:31;;;;;;;23.45;5.10;;;5.50;99.90;;;;;;5071443;28;20494;-79
2022/02/23 01:43:58;;;;;;;23.67;4.73;;;5.50;99.90;;;;;;5057033;28;20123;-80
2022/02/23 01:46:23;;;;;;;24.70;5.20;;;5.50;99.90;;;;;;5068359;28;20127;-79
2022/02/23 01:48:49;;;;;;;26.10;5.23;;;5.50;99.90;;;;;;5068148;28;20135;-79
2022/02/23 01:51:16;;;;;;;27.77;4.85;;;5.50;99.90;;;;;;5055190;28;20090;-80
2022/02/23 01:53:42;;;;;;;26.00;5.70;;;5.50;99.90;;;;;;5124703;27;20055;-80
2022/02/23 01:56:08;;;;;;;27.30;4.80;;;5.50;99.90;;;;;;5072867;28;20040;-80
2022/02/23 01:58:34;;;;;;;23.90;5.07;;;5.60;99.90;;;;;;5107363;28;20134;-79
2022/02/23 02:01:00;;;;;;;26.98;4.90;;;5.60;99.90;;;;;;5089352;28;20112;-78
2022/02/23 02:03:26;;;;;;;28.77;5.32;;;5.60;99.90;;;;;;5090349;28;20040;-79
2022/02/23 02:05:51;;;;;;;33.10;6.32;;;5.60;99.90;;;;;;5090008;28;20048;-78
2022/02/23 02:08:17;;;;;;;29.90;5.88;;;5.50;99.90;;;;;;5072465;28;20671;-77
2022/02/23 02:10:43;;;;;;;22.83;4.88;;;5.50;99.90;;;;;;5072863;28;20087;-79
2022/02/23 02:13:09;;;;;;;24.10;5.00;;;5.60;99.90;;;;;;5068264;28;20044;-79
2022/02/23 02:15:35;;;;;;;28.00;5.13;;;5.50;99.90;;;;;;5104294;28;20399;-79
2022/02/23 02:18:00;;;;;;;25.10;5.05;;;5.50;99.90;;;;;;5089652;28;20052;-79
2022/02/23 02:20:27;;;;;;;27.75;6.00;;;5.60;99.90;;;;;;5066749;28;20074;-79
2022/02/23 02:22:55;;;;;;;25.17;4.88;;;5.60;99.90;;;;;;5053226;28;20101;-79
2022/02/23 02:25:21;;;;;;;24.23;4.47;;;5.50;99.90;;;;;;5068923;28;20044;-79
2022/02/23 02:27:47;;;;;;;24.08;5.32;;;5.50;99.90;;;;;;5071140;28;20138;-79
2022/02/23 02:30:13;;;;;;;24.38;5.22;;;5.40;99.90;;;;;;5089276;28;20131;-79
2022/02/23 02:32:39;;;;;;;24.53;5.47;;;5.40;99.90;;;;;;5106108;27;20051;-78
2022/02/23 02:35:09;;;;;;;27.70;5.37;;;5.40;99.90;;;;;;5073203;28;20036;-79
2022/02/23 02:37:35;;;;;;;25.98;6.38;;;5.50;99.90;;;;;;5123613;27;20048;-79
2022/02/23 02:40:01;;;;;;;23.98;4.88;;;5.50;99.90;;;;;;5089497;28;20032;-80
2022/02/23 02:42:27;;;;;;;30.63;4.78;;;5.40;99.90;;;;;;5054300;28;20048;-79
2022/02/23 02:44:56;;;;;;;26.27;4.87;;;5.40;99.90;;;;;;5073221;28;20048;-80
2022/02/23 02:47:22;;;;;;;23.55;4.63;;;5.40;99.90;;;;;;5055336;28;20051;-79
2022/02/23 02:49:47;;;;;;;20.25;3.78;;;5.40;99.90;;;;;;5055733;28;20071;-79
2022/02/23 02:52:14;;;;;;;24.77;4.70;;;5.40;99.90;;;;;;5088310;28;20032;-79
2022/02/23 02:54:39;;;;;;;30.40;5.35;;;5.30;99.90;;;;;;5070004;28;20076;-79
2022/02/23 02:57:08;;;;;;;27.40;5.07;;;5.30;99.90;;;;;;5111748;27;20068;-79
2022/02/23 02:59:34;;;;;;;23.20;5.03;;;5.20;99.90;;;;;;5055973;28;20135;-79
2022/02/23 03:01:59;;;;;;;24.70;4.35;;;5.50;99.90;;;;;;5086868;28;20131;-78
2022/02/23 03:04:25;;;;;;;32.83;4.97;;;5.30;99.90;;;;;;5079307;28;20052;-79
2022/02/23 03:06:51;;;;;;;23.95;5.97;;;5.30;99.90;;;;;;5087773;28;20063;-79
2022/02/23 03:09:17;;;;;;;27.02;4.25;;;5.30;99.90;;;;;;5071714;28;20073;-79
2022/02/23 03:11:46;;;;;;;26.23;4.20;;;5.30;99.90;;;;;;5081844;28;20052;-80
2022/02/23 03:14:12;;;;;;;25.63;4.22;;;5.20;99.90;;;;;;5071660;28;20040;-79
2022/02/23 03:16:38;;;;;;;23.97;4.90;;;5.30;99.90;;;;;;5123410;27;20059;-79
2022/02/23 03:19:03;;;;;;;25.80;4.53;;;5.20;99.90;;;;;;5123013;27;20158;-79
2022/02/23 03:21:29;;;;;;;23.60;4.80;;;5.20;99.90;;;;;;5109615;27;20052;-79
2022/02/23 03:23:55;;;;;;;25.73;4.97;;;5.30;99.90;;;;;;5069402;28;20483;-79
2022/02/23 03:26:21;;;;;;;30.27;5.05;;;5.20;99.90;;;;;;5068950;28;20044;-79
2022/02/23 03:28:47;;;;;;;22.48;4.60;;;5.20;99.90;;;;;;5085552;28;20055;-79
2022/02/23 03:31:13;;;;;;;23.73;4.83;;;5.20;99.90;;;;;;5104393;28;20047;-79
2022/02/23 03:33:42;;;;;;;28.35;5.07;;;5.20;99.90;;;;;;5069024;28;20502;-80
2022/02/23 03:36:13;;;;;;;24.33;5.33;;;5.30;99.90;;;;;;5070062;28;20039;-79
2022/02/23 03:38:40;;;;;;;27.00;4.95;;;5.20;99.90;;;;;;5087505;28;20048;-79
2022/02/23 03:41:06;;;;;;;25.58;5.07;;;5.30;99.90;;;;;;5051770;28;20466;-79
2022/02/23 03:43:32;;;;;;;26.27;4.83;;;5.30;99.90;;;;;;5120281;27;20047;-79
2022/02/23 03:45:58;;;;;;;27.02;5.15;;;5.30;99.90;;;;;;5071031;28;20050;-79
2022/02/23 03:48:24;;;;;;;24.90;4.30;;;5.30;99.90;;;;;;5078609;28;20045;-78
2022/02/23 03:50:50;;;;;;;29.20;5.60;;;5.30;99.90;;;;;;5116155;27;20685;-79
2022/02/23 03:53:16;;;;;;;23.23;4.35;;;5.30;99.90;;;;;;5060335;28;20809;-80
2022/02/23 03:55:42;;;;;;;28.25;5.10;;;5.30;99.90;;;;;;5074923;28;20061;-79
2022/02/23 03:58:09;;;;;;;22.70;4.10;;;5.30;99.90;;;;;;5114727;27;20046;-79
2022/02/23 04:00:35;;;;;;;21.48;4.78;;;5.30;99.90;;;;;;5089493;28;20244;-79
2022/02/23 04:03:01;;;;;;;23.90;4.95;;;5.20;99.90;;;;;;5096662;28;20067;-79
2022/02/23 04:05:28;;;;;;;25.63;5.03;;;5.30;99.90;;;;;;5051905;28;20395;-80
2022/02/23 04:07:53;;;;;;;18.60;4.47;;;5.30;99.90;;;;;;5090852;28;20036;-79
2022/02/23 04:10:20;;;;;;;26.70;5.35;;;5.20;99.90;;;;;;5072299;28;20383;-79
2022/02/23 04:12:47;;;;;;;24.33;4.23;;;5.10;99.90;;;;;;5095307;28;20078;-79
2022/02/23 04:15:14;;;;;;;25.02;4.75;;;5.10;99.90;;;;;;5094147;28;20028;-80
2022/02/23 04:17:40;;;;;;;21.40;3.90;;;5.10;99.90;;;;;;5104064;28;20451;-79
2022/02/23 04:20:07;;;;;;;20.77;4.47;;;5.00;99.90;;;;;;5100180;28;20039;-79
2022/02/23 04:22:34;;;;;;;21.30;3.72;;;5.10;99.90;;;;;;5084530;28;20517;-80
2022/02/23 04:25:00;;;;;;;27.00;4.53;;;5.10;99.90;;;;;;5105422;28;20047;-79
2022/02/23 04:27:25;;;;;;;27.37;4.90;;;5.20;99.90;;;;;;5102979;27;20052;-80
2022/02/23 04:29:51;;;;;;;24.20;4.60;;;5.10;99.90;;;;;;5084295;28;20087;-79
2022/02/23 04:32:17;;;;;;;21.17;4.50;;;5.00;99.90;;;;;;5098835;28;20463;-79
2022/02/23 04:34:43;;;;;;;23.63;4.80;;;5.00;99.90;;;;;;5089083;28;20040;-79
2022/02/23 04:37:09;;;;;;;25.23;3.93;;;5.00;99.90;;;;;;5069443;28;20118;-80
2022/02/23 04:39:35;;;;;;;24.13;4.43;;;5.00;99.90;;;;;;5070204;28;20036;-79
2022/02/23 04:42:01;;;;;;;23.50;3.85;;;5.00;99.90;;;;;;5076244;28;20233;-79
2022/02/23 04:44:28;;;;;;;25.47;4.17;;;5.00;99.90;;;;;;5088392;28;20137;-80
2022/02/23 04:46:55;;;;;;;27.02;5.47;;;4.90;99.90;;;;;;5081975;28;20371;-80
2022/02/23 04:49:21;;;;;;;23.37;3.90;;;4.90;99.90;;;;;;5092336;28;20055;-79
2022/02/23 04:51:47;;;;;;;23.30;4.07;;;4.90;99.90;;;;;;5067216;28;20048;-79
2022/02/23 04:54:13;;;;;;;22.47;4.73;;;4.80;99.90;;;;;;5051828;28;20100;-80
2022/02/23 04:56:39;;;;;;;27.30;5.63;;;4.80;99.90;;;;;;5087785;28;20047;-80
2022/02/23 04:59:08;;;;;;;25.47;4.17;;;4.70;99.90;;;;;;5071447;28;20520;-79
2022/02/23 05:01:33;;;;;;;25.33;5.33;;;4.70;99.90;;;;;;5082703;28;20065;-80
2022/02/23 05:03:59;;;;;;;30.63;5.27;;;4.70;99.90;;;;;;5052421;28;20052;-80
2022/02/23 05:06:25;;;;;;;24.30;4.07;;;4.60;99.90;;;;;;5053302;28;20675;-80
2022/02/23 05:08:51;;;;;;;32.07;5.87;;;4.60;99.90;;;;;;5121141;28;20506;-80
2022/02/23 05:11:16;;;;;;;28.90;4.20;;;4.60;99.90;;;;;;5049572;28;20068;-80
2022/02/23 05:13:42;;;;;;;27.17;5.87;;;4.60;99.90;;;;;;5082876;28;20055;-80
2022/02/23 05:16:08;;;;;;;31.40;5.17;;;4.50;99.90;;;;;;5082974;28;20039;-80
2022/02/23 05:18:34;;;;;;;25.90;4.70;;;4.40;99.90;;;;;;5049998;28;20048;-79
2022/02/23 05:21:01;;;;;;;27.63;5.00;;;4.40;99.90;;;;;;5100398;28;20082;-80
2022/02/23 05:23:30;;;;;;;23.80;4.50;;;4.30;99.90;;;;;;5083358;28;20052;-80
2022/02/23 05:26:00;;;;;;;23.80;4.93;;;4.30;99.90;;;;;;5083150;28;20052;-80
2022/02/23 05:28:26;;;;;;;29.13;4.45;;;4.20;99.90;;;;;;5066455;28;20222;-80
2022/02/23 05:30:52;;;;;;;22.27;4.20;;;4.20;99.90;;;;;;5083440;28;20053;-80
2022/02/23 05:33:19;;;;;;;31.50;4.90;;;4.20;99.90;;;;;;5082898;28;20148;-80
2022/02/23 05:35:45;;;;;;;26.27;4.90;;;4.10;99.90;;;;;;5049555;28;20593;-80
2022/02/23 05:38:10;;;;;;;26.33;5.17;;;4.10;99.90;;;;;;5066149;28;20449;-80
2022/02/23 05:40:36;;;;;;;22.97;4.47;;;4.10;99.90;;;;;;5100134;28;20045;-79
2022/02/23 05:43:03;;;;;;;23.80;4.90;;;4.00;99.90;;;;;;5095708;28;20077;-78
2022/02/23 05:45:28;;;;;;;24.93;5.37;;;4.00;99.90;;;;;;5069411;28;20098;-79
2022/02/23 05:47:54;;;;;;;25.07;4.70;;;4.00;99.90;;;;;;5087679;28;20523;-80
2022/02/23 05:50:20;;;;;;;27.70;5.23;;;4.00;99.90;;;;;;5087557;28;20608;-80
2022/02/23 05:52:46;;;;;;;29.83;5.57;;;4.00;99.90;;;;;;5053536;28;20066;-80
2022/02/23 05:55:12;;;;;;;31.37;5.20;;;4.00;99.90;;;;;;5087539;28;20044;-79
2022/02/23 05:57:38;;;;;;;22.60;4.80;;;4.00;99.90;;;;;;5079217;28;20526;-79
2022/02/23 06:00:05;;;;;;;27.90;4.70;;;4.00;99.90;;;;;;5055206;28;20139;-80
2022/02/23 06:02:31;;;;;;;30.50;6.27;;;3.90;99.90;;;;;;5078440;28;20044;-80
2022/02/23 06:04:58;;;;;;;25.90;5.43;;;3.90;99.90;;;;;;5087204;28;20048;-80
2022/02/23 06:07:23;;;;;;;26.20;5.53;;;3.90;99.90;;;;;;5070240;28;20049;-80
2022/02/23 06:09:49;;;;;;;25.90;4.80;;;3.90;99.90;;;;;;5086381;28;20314;-80
2022/02/23 06:12:15;;;;;;;25.97;5.33;;;3.90;99.90;;;;;;5061565;28;20044;-80
2022/02/23 06:14:41;;;;;;;31.50;6.03;;;3.80;99.90;;;;;;5089606;28;20051;-80
2022/02/23 06:17:07;;;;;;;27.70;4.70;;;3.80;99.90;;;;;;5106782;28;20046;-80
2022/02/23 06:19:33;;;;;;;26.47;5.17;;;3.70;99.90;;;;;;5055639;28;20040;-80
2022/02/23 06:21:58;;;;;;;29.20;5.90;;;3.60;99.90;;;;;;5070505;28;20052;-79
2022/02/23 06:24:24;;;;;;;27.43;5.00;;;3.60;99.90;;;;;;5055436;28;20056;-80
2022/02/23 06:26:50;;;;;;;28.87;7.20;;;3.60;99.90;;;;;;5072975;28;20040;-79
2022/02/23 06:29:16;;;;;;;28.03;5.83;;;3.50;99.90;;;;;;5123190;27;20038;-80
2022/02/23 06:32:06;;;;;;;30.20;5.43;;;3.60;99.90;;;;;;5072291;28;20040;-79
2022/02/23 06:34:34;;;;;;;33.08;6.00;;;3.60;99.90;;;;;;5072031;28;20117;-79
2022/02/23 06:37:02;;;;;;;25.17;5.10;;;3.60;99.90;;;;;;5055623;28;20044;-80
2022/02/23 06:39:38;;;;;;;32.00;6.00;;;3.60;99.90;;;;;;5102375;28;20314;-80
2022/02/23 06:42:05;;;;;;;23.43;4.50;;;3.70;99.90;;;;;;5106888;27;20043;-80
2022/02/23 06:44:31;;;;;;;23.43;4.70;;;3.70;99.90;;;;;;5055230;28;20070;-80
2022/02/23 06:47:00;;;;;;;23.87;4.67;;;3.70;99.90;;;;;;5088913;28;20039;-80
2022/02/23 06:49:39;;;;;;;25.03;5.43;;;3.70;99.90;;;;;;5099555;28;20044;-80
2022/02/23 06:52:07;;;;;;;21.73;4.57;;;3.70;99.90;;;;;;5044524;28;20040;-79
2022/02/23 06:54:33;;;;;;;24.67;5.20;;;3.60;99.90;;;;;;5046359;28;20049;-79
2022/02/23 06:56:59;;;;;;;22.77;5.27;;;3.60;99.90;;;;;;5085277;28;20410;-79
2022/02/23 06:59:25;;;;;;;23.50;4.53;;;3.70;99.90;;;;;;5089560;28;20145;-80
2022/02/23 07:01:51;;;;;;;24.60;4.40;;;3.70;99.90;;;;;;5071292;28;20346;-79
2022/02/23 07:04:17;;;;;;;23.10;5.10;;;3.70;99.90;;;;;;5075652;28;20118;-80
2022/02/23 07:06:46;;;;;;;19.53;5.03;;;3.70;99.90;;;;;;5079700;28;20054;-79
2022/02/23 07:09:12;;;;;;;23.13;4.40;;;3.90;99.90;;;;;;5094839;27;20037;-79
2022/02/23 07:11:38;;;;;;;23.37;4.60;;;3.90;99.90;;;;;;5091086;27;20036;-79
2022/02/23 07:14:05;;;;;;;23.07;4.57;;;3.90;99.90;;;;;;5110123;27;20142;-79
2022/02/23 07:16:35;;;;;;;20.20;4.80;;;4.00;99.90;;;;;;5080876;28;20686;-79
2022/02/23 07:19:01;;;;;;;17.60;4.30;;;4.00;99.90;;;;;;5089610;28;20054;-80
2022/02/23 07:21:27;;;;;;;25.97;4.67;;;4.00;99.90;;;;;;5046775;28;20052;-79
2022/02/23 07:23:53;;;;;;;22.80;4.33;;;4.10;99.90;;;;;;5116377;27;20040;-80
2022/02/23 07:26:19;;;;;;;23.63;4.50;;;4.00;99.90;;;;;;5059209;28;20048;-79
2022/02/23 07:28:45;;;;;;;26.33;4.77;;;4.10;99.90;;;;;;5067198;28;20040;-79
2022/02/23 07:31:17;;;;;;;26.23;4.50;;;4.20;99.90;;;;;;5054519;28;20042;-79
2022/02/23 07:33:44;;;;;;;23.07;4.93;;;4.20;99.90;;;;;;5079862;28;20048;-80
2022/02/23 07:36:10;;;;;;;25.90;5.17;;;4.30;99.90;;;;;;5065386;28;20086;-78
2022/02/23 07:38:38;;;;;;;24.57;4.83;;;4.30;99.90;;;;;;5095041;27;20478;-78
2022/02/23 07:41:08;;;;;;;23.50;5.27;;;4.40;99.90;;;;;;5065518;28;20035;-77
2022/02/23 07:43:34;;;;;;;22.23;4.10;;;4.40;99.90;;;;;;5092677;28;20073;-78
2022/02/23 07:46:01;;;;;;;23.37;4.73;;;4.40;99.90;;;;;;5067401;28;20043;-79
2022/02/23 07:48:30;;;;;;;18.57;4.20;;;4.50;99.90;;;;;;5063041;28;20079;-79
2022/02/23 07:50:58;;;;;;;23.43;5.20;;;4.50;99.90;;;;;;5095483;27;20502;-79
2022/02/23 07:53:25;;;;;;;22.90;4.93;;;4.60;99.90;;;;;;5075082;28;20044;-78
2022/02/23 07:55:54;;;;;;;24.20;4.23;;;4.60;99.90;;;;;;5064262;28;20044;-79
2022/02/23 07:58:19;;;;;;;20.63;4.87;;;4.60;99.90;;;;;;5072392;28;20039;-79
2022/02/23 08:00:45;;;;;;;18.37;4.77;;;4.70;99.90;;;;;;5081234;28;20040;-79
2022/02/23 08:03:11;;;;;;;30.13;5.73;;;4.80;99.90;;;;;;5076547;28;20119;-79
2022/02/23 08:05:37;;;;;;;21.83;4.50;;;4.80;99.90;;;;;;5108976;27;20043;-79
2022/02/23 08:08:03;;;;;;;22.50;4.97;;;4.90;99.90;;;;;;5071788;28;20516;-80
2022/02/23 08:10:29;;;;;;;21.43;4.53;;;4.90;99.90;;;;;;5093927;28;20043;-79
2022/02/23 08:12:58;;;;;;;22.00;5.30;;;5.00;99.90;;;;;;5096732;28;20054;-79
2022/02/23 08:20:56;;;;;;;22.60;4.50;;;5.10;99.90;;;;;;5078947;28;20094;-79
2022/02/23 08:23:22;;;;;;;25.20;4.97;;;5.20;99.90;;;;;;5082260;28;20532;-79
2022/02/23 08:25:48;;;;;;;22.67;5.00;;;5.30;99.90;;;;;;5081061;28;20111;-79
2022/02/23 08:28:15;;;;;;;25.70;5.33;;;5.40;99.90;;;;;;5083417;28;20039;-78
2022/02/23 08:30:41;;;;;;;25.07;6.37;;;5.60;99.90;;;;;;5097199;28;20670;-79
2022/02/23 08:33:07;;;;;;;29.97;7.70;;;5.70;99.90;;;;;;5070067;28;20131;-77
2022/02/23 08:35:33;;;;;;;26.35;6.88;;;5.70;99.90;;;;;;5080038;28;20052;-79
2022/02/23 08:38:02;;;;;;;28.92;8.68;;;5.80;99.90;;;;;;5086210;28;20108;-77
2022/02/23 08:40:28;;;;;;;26.60;8.40;;;6.00;99.90;;;;;;5051754;28;20495;-78
2022/02/23 08:42:54;;;;;;;36.65;10.95;;;6.10;99.90;;;;;;5095991;28;20036;-79
2022/02/23 08:45:20;;;;;;;40.55;13.02;;;6.20;99.90;;;;;;5083168;28;20391;-79
2022/02/23 08:47:46;;;;;;;47.75;15.88;;;6.30;99.90;;;;;;5072861;28;20044;-80
2022/02/23 08:50:12;;;;;;;39.17;13.73;;;6.40;99.90;;;;;;5104949;28;20135;-78
2022/02/23 08:52:38;;;;;;;40.03;14.93;;;6.40;99.90;;;;;;5061991;28;20040;-79
2022/02/23 08:55:06;;;;;;;46.03;15.65;;;6.50;99.90;;;;;;5101791;28;20065;-80
2022/02/23 08:57:32;;;;;;;38.25;13.40;;;6.50;99.90;;;;;;5067969;28;20054;-79
2022/02/23 08:59:58;;;;;;;38.78;13.55;;;6.60;99.90;;;;;;5092809;28;20044;-79
2022/02/23 09:02:24;;;;;;;37.05;12.23;;;6.60;99.90;;;;;;5072988;28;20122;-79
2022/02/23 09:04:50;;;;;;;32.90;12.55;;;6.60;99.90;;;;;;5085811;28;20144;-80
2022/02/23 09:07:16;;;;;;;27.63;11.15;;;6.60;99.90;;;;;;5094777;28;20081;-80
2022/02/23 09:09:42;;;;;;;31.77;10.38;;;6.70;99.90;;;;;;5093577;28;20047;-80
2022/02/23 09:12:08;;;;;;;28.13;10.02;;;6.70;99.90;;;;;;5077944;28;20520;-78
2022/02/23 09:14:34;;;;;;;26.85;7.22;;;6.70;99.90;;;;;;5069277;28;20056;-80
2022/02/23 09:17:03;;;;;;;28.80;7.63;;;6.80;99.90;;;;;;5070407;28;20036;-78
2022/02/23 09:19:29;;;;;;;27.33;7.75;;;6.80;99.90;;;;;;5067989;28;20571;-79
2022/02/23 09:21:55;;;;;;;26.00;6.38;;;6.90;99.90;;;;;;5075639;28;20075;-79
2022/02/23 09:24:23;;;;;;;24.92;6.25;;;6.90;99.90;;;;;;5052226;28;20044;-79
2022/02/23 09:26:48;;;;;;;27.60;6.43;;;7.00;99.90;;;;;;5079196;28;20502;-80
2022/02/23 09:29:14;;;;;;;28.70;6.72;;;7.00;99.90;;;;;;5062051;28;20128;-78
2022/02/23 09:31:40;;;;;;;23.55;5.40;;;7.10;99.90;;;;;;5099216;28;20033;-79
2022/02/23 09:34:06;;;;;;;26.02;5.57;;;7.10;99.90;;;;;;5070219;28;20134;-80
2022/02/23 09:36:32;;;;;;;23.10;5.63;;;7.20;99.90;;;;;;5049137;28;20162;-78
2022/02/23 09:39:01;;;;;;;23.15;5.20;;;7.30;99.90;;;;;;5094032;28;20549;-79
2022/02/23 09:41:27;;;;;;;23.23;5.70;;;7.20;99.90;;;;;;5069473;28;20119;-79
2022/02/23 09:43:55;;;;;;;21.77;4.70;;;7.40;99.90;;;;;;5099967;28;20513;-80
2022/02/23 09:46:25;;;;;;;27.38;5.60;;;7.50;99.90;;;;;;5081056;28;20145;-79
2022/02/23 09:48:53;;;;;;;22.45;4.93;;;7.50;99.90;;;;;;5071032;28;20505;-80
2022/02/23 09:51:19;;;;;;;19.02;4.68;;;7.50;99.90;;;;;;5070441;28;20136;-79
2022/02/23 09:53:45;;;;;;;20.92;4.78;;;7.60;99.90;;;;;;5101702;28;20337;-78
2022/02/23 09:56:13;;;;;;;19.75;4.70;;;7.70;99.90;;;;;;5075150;28;20135;-80
2022/02/23 09:58:49;;;;;;;22.95;4.63;;;7.70;99.90;;;;;;5069516;28;20496;-78
2022/02/23 10:01:15;;;;;;;18.60;4.75;;;7.80;99.90;;;;;;5054496;28;20517;-79
2022/02/23 10:03:45;;;;;;;25.83;5.07;;;7.80;99.90;;;;;;5099378;28;20040;-78
2022/02/23 10:06:31;;;;;;;18.58;4.30;;;7.90;99.90;;;;;;5129662;27;20051;-78
2022/02/23 10:09:09;;;;;;;22.13;5.03;;;8.00;99.90;;;;;;5125511;27;20220;-78
2022/02/23 10:11:36;;;;;;;19.33;4.70;;;8.10;99.90;;;;;;5096807;28;20113;-80
2022/02/23 10:14:03;;;;;;;15.73;3.65;;;8.10;99.90;;;;;;5068550;28;20051;-79
2022/02/23 10:16:36;;;;;;;25.17;4.38;;;8.10;99.90;;;;;;5081485;28;20305;-77
2022/02/23 10:19:22;;;;;;;18.83;4.55;;;8.20;99.90;;;;;;5087761;28;20055;-78
2022/02/23 10:21:52;;;;;;;17.75;4.30;;;8.20;99.90;;;;;;5080221;28;20604;-80
2022/02/23 10:24:38;;;;;;;;;;;8.20;99.90;;;;;;5091943;28;20524;-78
2022/02/23 10:27:13;;;;;;;17.85;3.92;;;8.30;99.90;;;;;;5111174;27;19928;-79
2022/02/23 10:29:56;;;;;;;16.13;3.10;;;8.30;99.90;;;;;;5063922;28;20138;-78
2022/02/23 10:32:24;;;;;;;15.52;3.75;;;8.30;99.90;;;;;;5109587;27;20039;-78
2022/02/23 10:34:57;;;;;;;16.88;3.15;;;8.40;99.90;;;;;;5088854;27;20482;-78
2022/02/23 10:37:26;;;;;;;17.73;3.97;;;8.50;99.90;;;;;;5069073;28;20101;-79
2022/02/23 10:40:00;;;;;;;14.40;3.03;;;8.50;99.90;;;;;;5079659;28;20130;-78
2022/02/23 10:42:29;;;;;;;18.05;3.45;;;8.60;99.90;;;;;;5130829;27;20494;-79
2022/02/23 10:45:00;;;;;;;11.82;2.90;;;8.60;99.90;;;;;;5093877;28;20473;-79
2022/02/23 10:47:32;;;;;;;;;;;8.60;99.90;;;;;;5070452;28;20047;-78
2022/02/23 10:50:06;;;;;;;14.15;3.45;;;8.60;99.90;;;;;;5122360;27;19981;-78
2022/02/23 10:52:37;;;;;;;17.85;3.45;;;8.70;99.90;;;;;;5083926;28;20370;-79
2022/02/23 10:55:23;;;;;;;23.08;3.50;;;8.70;99.90;;;;;;5083544;28;20491;-79
2022/02/23 10:58:13;;;;;;;17.23;3.15;;;8.80;99.90;;;;;;5082461;28;20048;-79
2022/02/23 11:00:41;;;;;;;17.52;3.13;;;8.90;99.90;;;;;;5076716;28;20059;-79
2022/02/23 11:03:07;;;;;;;13.07;2.95;;;8.90;99.90;;;;;;5087457;28;20048;-80
2022/02/23 11:05:33;;;;;;;14.65;3.42;;;8.90;99.90;;;;;;5072421;28;20476;-80
2022/02/23 11:08:03;;;;;;;13.48;2.75;;;8.90;99.90;;;;;;5087802;28;20076;-79
2022/02/23 11:10:29;;;;;;;12.32;3.13;;;9.10;99.90;;;;;;5065636;28;20043;-78
2022/02/23 11:12:57;;;;;;;14.75;2.72;;;9.00;99.90;;;;;;5055892;28;20121;-80
2022/02/23 11:15:25;;;;;;;18.45;3.42;;;9.00;99.90;;;;;;5106759;28;20035;-80
2022/02/23 11:17:53;;;;;;;15.70;3.25;;;9.10;99.90;;;;;;5073842;28;20127;-79
2022/02/23 11:20:27;;;;;;;14.85;2.88;;;9.20;99.90;;;;;;5091377;28;20070;-79
2022/02/23 11:23:00;;;;;;;11.73;2.75;;;9.20;99.90;;;;;;5065354;28;20562;-80
2022/02/23 11:25:37;;;;;;;14.38;2.58;;;9.30;99.90;;;;;;5109216;27;20044;-78
2022/02/23 11:28:23;;;;;;;12.07;2.85;;;9.20;99.90;;;;;;5083789;28;20494;-80
2022/02/23 11:34:06;;;;;;;11.45;2.58;;;9.40;99.90;;;;;;5057809;28;20059;-79
2022/02/23 11:36:42;;;;;;;12.85;2.92;;;9.50;99.90;;;;;;5069938;28;20522;-78
2022/02/23 11:39:13;;;;;;;10.20;2.30;;;9.60;99.90;;;;;;5059513;28;20636;-79
2022/02/23 11:41:41;;;;;;;11.00;2.40;;;9.60;99.90;;;;;;5084455;28;20048;-79
2022/02/23 11:44:14;;;;;;;12.70;2.47;;;9.60;99.90;;;;;;5101653;27;20093;-80
2022/02/23 11:47:09;;;;;;;13.52;2.85;;;9.60;99.90;;;;;;5056085;28;20052;-80
2022/02/23 11:49:48;;;;;;;11.48;2.45;;;9.80;99.90;;;;;;5087467;28;20093;-80
2022/02/23 11:52:16;;;;;;;8.57;1.80;;;9.80;99.90;;;;;;5071413;28;20040;-80
2022/02/23 11:55:05;;;;;;;10.55;2.38;;;9.90;99.90;;;;;;5058380;28;20048;-79
2022/02/23 11:57:58;;;;;;;9.40;2.08;;;10.00;99.90;;;;;;5095410;28;20047;-79
2022/02/23 12:00:30;;;;;;;9.52;1.92;;;10.10;99.90;;;;;;5076831;28;20055;-80
2022/02/23 12:03:02;;;;;;;9.82;1.95;;;10.10;99.90;;;;;;5064353;28;20097;-80
2022/02/23 12:05:43;;;;;;;8.60;1.90;;;10.10;99.90;;;;;;5100974;27;20246;-79
2022/02/23 12:08:31;;;;;;;11.18;2.70;;;10.20;99.90;;;;;;5080996;28;20043;-78
2022/02/23 12:11:17;;;;;;;8.95;2.00;;;10.30;99.90;;;;;;5089683;28;20036;-80
2022/02/23 12:13:51;;;;;;;8.73;1.70;;;10.40;99.90;;;;;;5066066;28;20406;-79
2022/02/23 12:16:23;;;;;;;10.88;2.33;;;10.40;99.90;;;;;;5068499;28;20502;-82
2022/02/23 12:19:11;;;;;;;7.47;1.80;;;10.40;99.90;;;;;;5100181;28;20130;-82
2022/02/23 12:21:42;;;;;;;11.55;2.25;;;10.50;99.90;;;;;;5066611;28;20043;-82
2022/02/23 12:24:18;;;;;;;5.43;1.48;;;10.50;99.90;;;;;;5068718;28;20044;-84
2022/02/23 12:26:45;;;;;;;6.95;2.03;;;10.50;99.90;;;;;;5075440;28;20093;-80
2022/02/23 12:29:13;;;;;;;11.07;2.10;;;10.50;99.90;;;;;;5084703;28;20521;-83
2022/02/23 12:31:44;;;;;;;6.03;1.58;;;10.60;99.90;;;;;;5081955;28;20441;-83
2022/02/23 12:34:15;;;;;;;9.85;1.90;;;10.60;99.90;;;;;;5094588;28;20131;-83
2022/02/23 12:36:53;;;;;;;9.20;1.67;;;10.60;99.90;;;;;;5068804;28;20148;-82
2022/02/23 12:39:22;;;;;;;6.45;1.95;;;10.70;99.90;;;;;;5072508;28;20097;-83
2022/02/23 12:42:02;;;;;;;8.15;1.48;;;10.70;99.90;;;;;;5086380;28;20042;-83
2022/02/23 12:44:32;;;;;;;5.18;1.30;;;10.70;99.90;;;;;;5072639;28;20040;-80
2022/02/23 12:47:07;;;;;;;6.57;1.20;;;10.70;99.90;;;;;;5079872;28;20047;-82
2022/02/23 12:49:33;;;;;;;7.50;1.77;;;10.80;99.90;;;;;;5126854;27;20052;-82
2022/02/23 12:52:01;;;;;;;5.78;1.20;;;10.80;99.90;;;;;;5091007;28;20046;-84
2022/02/23 12:54:32;;;;;;;4.35;0.90;;;10.90;99.90;;;;;;5056926;28;20075;-83
2022/02/23 12:57:03;;;;;;;5.65;1.75;;;10.90;99.90;;;;;;5093724;28;20052;-84
2022/02/23 12:59:31;;;;;;;6.13;1.20;;;10.90;99.90;;;;;;5067061;28;20044;-84
2022/02/23 13:02:01;;;;;;;7.00;1.25;;;11.00;99.90;;;;;;5087069;28;20036;-84